Time;durP1;ratioP1;P1;durP2;ratioP2;P2;SDS_P1;SDS_P2;PMS_P1;PMS_P2;Temp;Humidity;BMP_temperature;BMP_pressure;BME280_temperature;BME280_humidity;BME280_pressure;Samples;Min_cycle;Max_cycle;Signal;HPM_P1;HPM_P2
2023/08/26 00:02:08;;;;;;;7.07;3.78;;;22.00;72.30;;;;;;5053907;28;20140;-30
2023/08/26 00:04:34;;;;;;;4.20;3.30;;;21.80;88.20;;;;;;5054348;28;20068;-30
2023/08/26 00:07:01;;;;;;;4.47;3.40;;;21.70;74.80;;;;;;5054769;28;20128;-30
2023/08/26 00:09:28;;;;;;;3.95;3.55;;;;;;;;;;5054268;28;20120;-31
2023/08/26 00:11:55;;;;;;;3.85;3.45;;;23.10;89.20;;;;;;5054184;28;20132;-31
2023/08/26 00:14:22;;;;;;;4.22;3.72;;;;;;;;;;5053925;28;20155;-33
2023/08/26 00:16:49;;;;;;;4.10;3.45;;;21.90;88.30;;;;;;5053829;28;20135;-31
2023/08/26 00:19:17;;;;;;;5.20;3.95;;;21.70;87.80;;;;;;5053739;28;20072;-30
2023/08/26 00:21:44;;;;;;;5.35;3.58;;;;;;;;;;5054908;28;20377;-32
2023/08/26 00:24:12;;;;;;;4.85;3.60;;;22.90;88.50;;;;;;5058666;28;20470;-29
2023/08/26 00:26:39;;;;;;;4.55;4.00;;;;;;;;;;5073838;28;20052;-30
2023/08/26 00:29:06;;;;;;;5.97;4.00;;;;;;;;;;5073656;28;20080;-33
2023/08/26 00:31:33;;;;;;;4.63;4.03;;;;;;;;;;5073321;28;20131;-30
2023/08/26 00:34:03;;;;;;;4.88;3.90;;;;;;;;;;5073262;28;20561;-32
2023/08/26 00:36:31;;;;;;;5.18;4.03;;;22.00;72.10;;;;;;5073151;28;20052;-32
2023/08/26 00:38:58;;;;;;;5.80;4.28;;;23.30;88.60;;;;;;5066628;28;20580;-31
2023/08/26 00:41:25;;;;;;;5.28;3.90;;;22.00;72.10;;;;;;5073391;28;20139;-31
2023/08/26 00:43:52;;;;;;;5.82;3.95;;;;;;;;;;5072850;28;20168;-30
2023/08/26 00:46:20;;;;;;;5.88;4.20;;;;;;;;;;5073452;28;20135;-31
2023/08/26 00:48:47;;;;;;;4.85;4.35;;;;;;;;;;5073464;28;20059;-32
2023/08/26 00:51:14;;;;;;;5.88;4.10;;;21.90;88.80;;;;;;5073207;28;20716;-30
2023/08/26 00:53:42;;;;;;;4.85;4.25;;;22.00;72.00;;;;;;5071038;28;20044;-31
2023/08/26 00:56:09;;;;;;;5.05;4.55;;;;;;;;;;5053259;28;20703;-33
2023/08/26 00:58:36;;;;;;;5.28;4.40;;;;;;;;;;5053118;28;20496;-32
2023/08/26 01:01:03;;;;;;;4.85;4.35;;;21.00;84.00;;;;;;5053103;28;20802;-30
2023/08/26 01:03:29;;;;;;;4.88;4.30;;;22.40;73.60;;;;;;5052844;28;20052;-35
2023/08/26 01:05:56;;;;;;;4.85;4.35;;;22.20;88.90;;;;;;5053083;28;20060;-35
2023/08/26 01:08:23;;;;;;;6.15;4.32;;;22.40;88.20;;;;;;5053222;28;20048;-38
2023/08/26 01:10:57;;;;;;;5.43;4.28;;;22.60;72.40;;;;;;5053966;28;20133;-35
2023/08/26 01:13:26;;;;;;;4.35;3.95;;;21.90;72.00;;;;;;5052613;28;20127;-34
2023/08/26 01:15:52;;;;;;;4.60;4.20;;;21.70;88.10;;;;;;5052455;28;20704;-34
2023/08/26 01:18:19;;;;;;;8.27;4.47;;;;;;;;;;5053007;28;20140;-35
2023/08/26 01:20:46;;;;;;;4.53;4.10;;;;;;;;;;5060390;28;20125;-35
2023/08/26 01:23:16;;;;;;;4.70;4.05;;;21.90;72.00;;;;;;5072518;28;20127;-36
2023/08/26 01:25:44;;;;;;;4.70;4.13;;;22.10;88.40;;;;;;5072746;28;20053;-38
2023/08/26 01:28:11;;;;;;;6.32;4.22;;;;;;;;;;5059858;28;20081;-36
2023/08/26 01:30:38;;;;;;;5.63;3.78;;;;;;;;;;5052841;28;20048;-35
2023/08/26 01:33:08;;;;;;;7.95;4.35;;;21.90;71.90;;;;;;5052312;28;20136;-38
2023/08/26 01:35:38;;;;;;;4.60;3.60;;;21.80;74.30;;;;;;5052218;28;20140;-36
2023/08/26 01:38:05;;;;;;;4.85;4.35;;;21.80;83.90;;;;;;5070846;28;20505;-38
2023/08/26 01:40:32;;;;;;;5.63;3.80;;;;;;;;;;5071199;28;20628;-34
2023/08/26 01:43:00;;;;;;;5.38;3.88;;;21.90;76.50;;;;;;5072226;28;20488;-34
2023/08/26 01:45:27;;;;;;;9.77;3.58;;;21.40;75.10;;;;;;5072088;28;20059;-33
2023/08/26 01:47:53;;;;;;;5.30;4.05;;;21.90;75.60;;;;;;5070135;28;20101;-35
2023/08/26 01:50:20;;;;;;;5.35;4.20;;;22.00;88.50;;;;;;5072146;28;20079;-37
2023/08/26 01:52:47;;;;;;;5.65;3.97;;;21.20;74.20;;;;;;5071687;28;20049;-34
2023/08/26 01:55:14;;;;;;;5.90;3.90;;;;;;;;;;5062657;28;20123;-36
2023/08/26 01:57:41;;;;;;;4.30;3.90;;;;;;;;;;5052294;28;20132;-33
2023/08/26 02:00:11;;;;;;;4.53;3.80;;;21.90;88.40;;;;;;5052176;28;20136;-35
2023/08/26 02:02:37;;;;;;;4.88;3.70;;;21.90;77.60;;;;;;5051857;28;20127;-35
2023/08/26 02:05:05;;;;;;;5.35;4.20;;;21.90;88.00;;;;;;5051105;28;20164;-38
2023/08/26 02:07:31;;;;;;;4.30;3.83;;;21.70;74.30;;;;;;5051978;28;20135;-34
2023/08/26 02:09:58;;;;;;;4.90;3.60;;;;;;;;;;5055763;28;20770;-36
2023/08/26 02:12:25;;;;;;;4.47;3.40;;;21.80;87.60;;;;;;5071577;28;20155;-38
2023/08/26 02:14:52;;;;;;;4.07;3.67;;;;;;;;;;5071911;28;20131;-33
2023/08/26 02:17:20;;;;;;;4.63;3.90;;;22.10;88.30;;;;;;5071306;28;20131;-37
2023/08/26 02:19:47;;;;;;;4.00;3.55;;;;;;;;;;5071630;28;20464;-38
2023/08/26 02:22:15;;;;;;;3.75;3.15;;;;;;;;;;5071461;28;20131;-35
2023/08/26 02:24:42;;;;;;;4.20;3.80;;;21.30;88.20;;;;;;5071115;28;20055;-36
2023/08/26 02:27:09;;;;;;;4.10;3.58;;;21.90;87.80;;;;;;5071618;28;20131;-37
2023/08/26 02:29:36;;;;;;;3.90;3.50;;;;;;;;;;5071391;28;20398;-34
2023/08/26 02:32:03;;;;;;;4.35;3.42;;;;;;;;;;5071263;28;20560;-36
2023/08/26 02:34:31;;;;;;;4.25;3.47;;;21.80;71.60;;;;;;5063800;28;20123;-33
2023/08/26 02:36:58;;;;;;;4.82;3.30;;;;;;;;;;5064423;28;20128;-33
2023/08/26 02:39:25;;;;;;;4.13;3.30;;;;;;;;;;5070760;28;20143;-34
2023/08/26 02:41:52;;;;;;;5.28;3.38;;;;;;;;;;5058712;28;20136;-34
2023/08/26 02:44:19;;;;;;;4.65;3.35;;;21.40;87.40;;;;;;5061452;28;20124;-34
2023/08/26 02:46:46;;;;;;;4.03;3.35;;;21.90;79.90;;;;;;5060248;28;20578;-35
2023/08/26 02:49:13;;;;;;;4.25;3.42;;;;;;;;;;5060841;28;20498;-37
2023/08/26 02:51:41;;;;;;;3.83;3.40;;;22.70;88.50;;;;;;5059995;28;20136;-38
2023/08/26 02:54:08;;;;;;;3.72;3.25;;;21.70;87.50;;;;;;5060902;28;20045;-35
2023/08/26 02:56:35;;;;;;;4.55;3.17;;;;;;;;;;5057553;28;20135;-32
2023/08/26 02:59:02;;;;;;;3.10;2.80;;;22.30;76.60;;;;;;5061516;28;20126;-35
2023/08/26 03:01:30;;;;;;;4.30;3.25;;;21.50;75.60;;;;;;5059920;28;20553;-37
2023/08/26 03:03:57;;;;;;;4.03;2.72;;;;;;;;;;5059866;28;20123;-35
2023/08/26 03:06:24;;;;;;;4.82;2.92;;;21.70;71.50;;;;;;5061546;28;20127;-34
2023/08/26 03:08:52;;;;;;;3.95;3.38;;;22.50;80.70;;;;;;5060104;28;20580;-36
2023/08/26 03:11:19;;;;;;;3.85;2.60;;;21.70;85.90;;;;;;5060007;28;20147;-39
2023/08/26 03:13:46;;;;;;;3.42;3.08;;;;;;;;;;5060827;28;20574;-38
2023/08/26 03:16:12;;;;;;;3.95;2.95;;;21.90;88.40;;;;;;5060451;28;20556;-36
2023/08/26 03:18:40;;;;;;;4.07;2.90;;;;;;;;;;5061252;28;20076;-36
2023/08/26 03:21:07;;;;;;;4.10;2.70;;;21.80;71.40;;;;;;5050473;28;20037;-35
2023/08/26 03:23:34;;;;;;;3.63;3.08;;;22.20;72.20;;;;;;5049906;28;20433;-34
2023/08/26 03:26:02;;;;;;;3.63;2.90;;;21.30;87.30;;;;;;5050201;28;20127;-38
2023/08/26 03:28:30;;;;;;;3.53;2.97;;;;;;;;;;5049535;28;20056;-36
2023/08/26 03:31:02;;;;;;;3.92;2.90;;;22.30;88.00;;;;;;5050487;28;20045;-35
2023/08/26 03:33:30;;;;;;;2.90;2.60;;;22.00;76.90;;;;;;5050314;28;20056;-35
2023/08/26 03:35:57;;;;;;;3.05;2.75;;;;;;;;;;5050798;28;20539;-35
2023/08/26 03:38:23;;;;;;;3.28;2.60;;;21.60;80.70;;;;;;5070498;28;20562;-34
2023/08/26 03:40:51;;;;;;;2.78;2.40;;;;;;;;;;5070449;28;20131;-34
2023/08/26 03:43:19;;;;;;;5.18;2.55;;;21.50;72.70;;;;;;5070155;28;20049;-34
2023/08/26 03:45:46;;;;;;;3.42;3.10;;;20.70;86.80;;;;;;5069713;28;20132;-35
2023/08/26 03:48:13;;;;;;;4.00;2.53;;;;;;;;;;5070444;28;20147;-33
2023/08/26 03:50:40;;;;;;;2.97;2.65;;;;;;;;;;5070648;28;20106;-38
2023/08/26 03:53:07;;;;;;;3.13;2.60;;;22.00;86.30;;;;;;5070298;28;20128;-35
2023/08/26 03:55:36;;;;;;;2.65;2.35;;;21.30;78.70;;;;;;5070177;28;20056;-33
2023/08/26 03:58:03;;;;;;;2.63;2.42;;;;;;;;;;5070656;28;20080;-34
2023/08/26 04:00:31;;;;;;;2.60;2.10;;;21.60;84.70;;;;;;5070365;28;20189;-37
2023/08/26 04:02:58;;;;;;;3.22;2.45;;;21.20;87.90;;;;;;5068333;28;20056;-36
2023/08/26 04:05:25;;;;;;;3.05;2.50;;;;;;;;;;5070555;28;20143;-35
2023/08/26 04:07:51;;;;;;;3.28;2.50;;;21.10;87.30;;;;;;5070554;28;20064;-39
2023/08/26 04:10:19;;;;;;;2.78;2.45;;;;;;;;;;5070324;28;20049;-36
2023/08/26 04:12:46;;;;;;;2.53;2.20;;;;;;;;;;5069551;28;20136;-34
2023/08/26 04:15:14;;;;;;;3.20;2.50;;;21.20;87.10;;;;;;5070445;28;20131;-35
2023/08/26 04:17:42;;;;;;;3.33;2.47;;;21.60;71.20;;;;;;5068847;28;20055;-34
2023/08/26 04:20:11;;;;;;;2.55;2.30;;;21.60;71.20;;;;;;5050167;28;20049;-32
2023/08/26 04:22:38;;;;;;;2.80;2.28;;;21.40;79.90;;;;;;5049877;28;20084;-36
2023/08/26 04:25:06;;;;;;;3.22;2.50;;;20.60;87.00;;;;;;5050109;28;20140;-36
2023/08/26 04:27:34;;;;;;;2.60;2.10;;;;;;;;;;5049854;28;20060;-36
2023/08/26 04:30:00;;;;;;;2.90;2.40;;;21.70;88.00;;;;;;5052892;28;20513;-35
2023/08/26 04:32:27;;;;;;;3.15;2.50;;;;;;;;;;5053710;28;20140;-35
2023/08/26 04:34:56;;;;;;;3.03;2.45;;;21.80;86.40;;;;;;5054455;28;20128;-35
2023/08/26 04:37:22;;;;;;;3.58;2.00;;;20.50;71.80;;;;;;5066194;28;20094;-31
2023/08/26 04:39:50;;;;;;;2.33;2.13;;;21.50;87.70;;;;;;5073242;28;20056;-31
2023/08/26 04:42:18;;;;;;;2.20;2.00;;;;;;;;;;5073166;28;20554;-31
2023/08/26 04:44:45;;;;;;;3.17;2.08;;;20.50;85.30;;;;;;5073606;28;20057;-31
2023/08/26 04:47:12;;;;;;;2.30;2.10;;;;;;;;;;5073384;28;20484;-33
2023/08/26 04:49:41;;;;;;;3.05;2.30;;;21.40;73.80;;;;;;5072651;28;20059;-33
2023/08/26 04:52:10;;;;;;;2.67;2.30;;;22.50;72.90;;;;;;5073191;28;20040;-31
2023/08/26 04:54:36;;;;;;;3.30;2.05;;;22.60;77.10;;;;;;5073680;28;20055;-31
2023/08/26 04:57:04;;;;;;;2.58;2.08;;;;;;;;;;5073114;28;20131;-31
2023/08/26 04:59:31;;;;;;;2.67;2.10;;;;;;;;;;5073166;28;20417;-36
2023/08/26 05:01:58;;;;;;;2.75;2.38;;;;;;;;;;5073037;28;20413;-32
2023/08/26 05:04:25;;;;;;;2.92;2.13;;;;;;;;;;5070520;28;20429;-34
2023/08/26 05:06:53;;;;;;;3.28;2.33;;;22.30;74.90;;;;;;5068578;28;20127;-31
2023/08/26 05:09:21;;;;;;;2.72;2.08;;;20.50;87.00;;;;;;5073335;28;20048;-30
2023/08/26 05:11:48;;;;;;;2.97;2.10;;;21.30;80.80;;;;;;5067271;28;20127;-30
2023/08/26 05:14:15;;;;;;;2.63;2.10;;;21.10;88.40;;;;;;5063625;28;20206;-33
2023/08/26 05:16:42;;;;;;;2.88;2.13;;;;;;;;;;5062431;28;20048;-30
2023/08/26 05:19:09;;;;;;;2.17;1.95;;;;;;;;;;5072803;28;20133;-35
2023/08/26 05:21:36;;;;;;;2.20;1.80;;;21.40;87.20;;;;;;5071642;28;20040;-32
2023/08/26 05:24:04;;;;;;;2.95;2.03;;;21.80;88.30;;;;;;5072859;28;20210;-29
2023/08/26 05:26:32;;;;;;;2.10;1.90;;;21.70;88.10;;;;;;5072784;28;20049;-29
2023/08/26 05:28:58;;;;;;;2.45;2.08;;;21.80;75.30;;;;;;5072467;28;20585;-30
2023/08/26 05:31:25;;;;;;;3.97;2.05;;;21.70;88.30;;;;;;5072590;28;20123;-30
2023/08/26 05:33:52;;;;;;;2.40;2.03;;;21.70;74.60;;;;;;5072403;28;20139;-32
2023/08/26 05:36:18;;;;;;;2.38;2.15;;;21.80;87.50;;;;;;5071728;28;20123;-30
2023/08/26 05:38:45;;;;;;;3.83;2.17;;;;;;;;;;5068331;28;20145;-33
2023/08/26 05:41:13;;;;;;;2.25;2.00;;;21.50;70.90;;;;;;5050579;28;20048;-37
2023/08/26 05:43:41;;;;;;;2.80;2.30;;;21.50;70.90;;;;;;5052029;28;20131;-32
2023/08/26 05:46:08;;;;;;;2.70;1.90;;;;;;;;;;5052428;28;20132;-33
2023/08/26 05:48:35;;;;;;;3.75;2.10;;;21.30;74.50;;;;;;5052193;28;20141;-31
2023/08/26 05:51:02;;;;;;;2.10;1.90;;;21.50;87.20;;;;;;5052276;28;20076;-29
2023/08/26 05:53:29;;;;;;;3.08;2.10;;;;;;;;;;5050273;28;20417;-29
2023/08/26 05:55:56;;;;;;;3.00;2.10;;;21.20;87.40;;;;;;5069518;28;20136;-30
2023/08/26 05:58:23;;;;;;;3.00;1.85;;;;;;;;;;5072015;28;20123;-32
2023/08/26 06:00:51;;;;;;;2.33;1.80;;;20.60;87.00;;;;;;5071857;28;20055;-29
2023/08/26 06:03:18;;;;;;;1.88;1.70;;;21.60;88.30;;;;;;5071512;28;20051;-29
2023/08/26 06:05:45;;;;;;;2.90;1.88;;;;;;;;;;5071564;28;20524;-34
2023/08/26 06:08:11;;;;;;;2.20;1.80;;;21.90;87.70;;;;;;5071859;28;20514;-29
2023/08/26 06:10:38;;;;;;;2.00;1.80;;;21.50;79.40;;;;;;5063533;28;20049;-33
2023/08/26 06:13:05;;;;;;;2.47;2.00;;;21.50;74.00;;;;;;5058566;28;20179;-33
2023/08/26 06:15:32;;;;;;;3.25;1.98;;;20.70;81.30;;;;;;5071639;28;20055;-31
2023/08/26 06:18:01;;;;;;;2.30;2.10;;;21.50;70.80;;;;;;5068583;28;20041;-31
2023/08/26 06:20:29;;;;;;;2.85;1.98;;;21.40;81.40;;;;;;5062478;28;20115;-33
2023/08/26 06:22:56;;;;;;;2.78;2.10;;;21.70;87.60;;;;;;5071507;28;20048;-31
2023/08/26 06:25:22;;;;;;;3.45;2.10;;;21.50;87.60;;;;;;5071948;28;20131;-30
2023/08/26 06:27:49;;;;;;;2.20;1.90;;;;;;;;;;5068402;28;20127;-33
2023/08/26 06:30:16;;;;;;;2.38;2.00;;;21.50;87.10;;;;;;5058623;28;20060;-31
2023/08/26 06:32:44;;;;;;;2.03;1.83;;;;;;;;;;5057206;28;20120;-33
2023/08/26 06:35:12;;;;;;;2.17;1.80;;;22.00;87.60;;;;;;5053411;28;20052;-30
2023/08/26 06:37:39;;;;;;;2.35;1.90;;;21.60;74.50;;;;;;5060133;28;20127;-31
2023/08/26 06:40:06;;;;;;;2.67;2.00;;;21.50;70.80;;;;;;5065102;28;20144;-35
2023/08/26 06:42:33;;;;;;;2.63;2.05;;;;;;;;;;5065518;28;20044;-33
2023/08/26 06:45:00;;;;;;;2.95;1.92;;;21.50;78.70;;;;;;5061648;28;20131;-33
2023/08/26 06:47:27;;;;;;;2.63;2.00;;;21.40;72.10;;;;;;5051483;28;20056;-31
2023/08/26 06:49:54;;;;;;;3.00;2.30;;;;;;;;;;5056348;28;20147;-30
2023/08/26 06:52:22;;;;;;;2.22;1.98;;;21.10;87.60;;;;;;5057192;28;20123;-31
2023/08/26 06:54:49;;;;;;;2.72;2.13;;;22.70;74.70;;;;;;5067117;28;20132;-32
2023/08/26 06:57:15;;;;;;;3.35;2.10;;;21.40;87.00;;;;;;5066216;28;20145;-31
2023/08/26 06:59:42;;;;;;;3.25;2.17;;;;;;;;;;5059846;28;20052;-38
2023/08/26 07:02:09;;;;;;;2.20;1.90;;;;;;;;;;5059688;28;20121;-32
2023/08/26 07:04:36;;;;;;;2.22;1.88;;;;;;;;;;5058864;28;20127;-35
2023/08/26 07:07:03;;;;;;;2.50;2.10;;;21.80;87.50;;;;;;5069550;28;20135;-30
2023/08/26 07:09:31;;;;;;;3.03;2.20;;;21.50;70.80;;;;;;5071194;28;20048;-30
2023/08/26 07:11:59;;;;;;;2.47;2.20;;;;;;;;;;5070936;28;20123;-32
2023/08/26 07:14:25;;;;;;;3.20;2.10;;;21.50;73.10;;;;;;5071036;28;20139;-31
2023/08/26 07:16:52;;;;;;;2.83;2.10;;;;;;;;;;5069465;28;20052;-32
2023/08/26 07:19:19;;;;;;;3.15;2.10;;;;;;;;;;5063342;28;20124;-31
2023/08/26 07:21:46;;;;;;;2.60;2.20;;;;;;;;;;5070504;28;20589;-32
2023/08/26 07:24:15;;;;;;;2.53;2.10;;;;;;;;;;5067465;28;20060;-32
2023/08/26 07:26:43;;;;;;;2.65;1.95;;;21.20;80.30;;;;;;5053959;28;20068;-31
2023/08/26 07:29:10;;;;;;;2.65;2.00;;;;;;;;;;5058244;28;20132;-31
2023/08/26 07:31:36;;;;;;;2.50;1.98;;;21.70;87.30;;;;;;5057492;28;20123;-31
2023/08/26 07:34:04;;;;;;;4.25;2.30;;;;;;;;;;5056126;28;20481;-34
2023/08/26 07:36:30;;;;;;;2.90;2.30;;;22.20;87.60;;;;;;5056937;28;20131;-33
2023/08/26 07:38:57;;;;;;;2.53;2.22;;;22.80;87.80;;;;;;5057517;28;20648;-30
2023/08/26 07:41:24;;;;;;;4.68;2.38;;;21.60;76.60;;;;;;5070353;28;20135;-31
2023/08/26 07:43:52;;;;;;;4.68;2.45;;;21.80;78.90;;;;;;5069461;28;20140;-31
2023/08/26 07:46:22;;;;;;;2.85;2.05;;;;;;;;;;5070893;28;20131;-32
2023/08/26 07:48:49;;;;;;;3.20;2.10;;;21.50;78.40;;;;;;5070701;28;20052;-31
2023/08/26 07:51:16;;;;;;;4.43;2.28;;;;;;;;;;5070065;28;20136;-34
2023/08/26 07:53:43;;;;;;;3.67;2.75;;;20.90;72.60;;;;;;5068964;28;20083;-31
2023/08/26 07:56:10;;;;;;;3.50;2.65;;;;;;;;;;5068306;28;20123;-32
2023/08/26 07:58:36;;;;;;;3.17;2.58;;;21.80;74.90;;;;;;5069006;28;20576;-32
2023/08/26 08:01:04;;;;;;;4.85;2.70;;;21.70;88.00;;;;;;5069043;28;20045;-31
2023/08/26 08:03:32;;;;;;;4.22;2.58;;;;;;;;;;5069877;28;20045;-32
2023/08/26 08:05:58;;;;;;;3.22;2.83;;;21.60;72.80;;;;;;5073968;28;20131;-31
2023/08/26 08:08:25;;;;;;;4.57;3.13;;;21.50;87.20;;;;;;5074064;28;20131;-30
2023/08/26 08:10:52;;;;;;;3.35;2.80;;;;;;;;;;5074002;28;20132;-31
2023/08/26 08:13:19;;;;;;;3.13;2.80;;;;;;;;;;5065096;28;20120;-31
2023/08/26 08:15:46;;;;;;;6.15;3.20;;;20.70;86.80;;;;;;5054105;28;20144;-32
2023/08/26 08:18:14;;;;;;;3.55;3.20;;;21.50;70.40;;;;;;5054192;28;20044;-34
2023/08/26 08:20:41;;;;;;;3.83;3.00;;;;;;;;;;5053994;28;20128;-35
2023/08/26 08:23:08;;;;;;;5.07;3.03;;;21.50;86.90;;;;;;5053689;28;20127;-31
2023/08/26 08:25:34;;;;;;;3.90;3.20;;;20.50;86.30;;;;;;5054051;28;20048;-30
2023/08/26 08:28:01;;;;;;;3.50;3.05;;;21.40;74.40;;;;;;5053790;28;20562;-32
2023/08/26 08:30:28;;;;;;;3.63;3.20;;;21.50;87.00;;;;;;5071713;28;20052;-35
2023/08/26 08:32:55;;;;;;;6.13;3.30;;;;;;;;;;5073703;28;20462;-33
2023/08/26 08:35:23;;;;;;;6.20;4.00;;;21.60;79.50;;;;;;5073991;28;20127;-36
2023/08/26 08:37:50;;;;;;;4.32;3.42;;;21.90;87.10;;;;;;5073414;28;20135;-36
2023/08/26 08:40:17;;;;;;;3.95;3.40;;;21.70;87.40;;;;;;5073100;28;20151;-35
2023/08/26 08:42:44;;;;;;;6.10;3.40;;;21.30;82.20;;;;;;5073115;28;20773;-35
2023/08/26 08:45:11;;;;;;;4.35;3.40;;;21.50;70.10;;;;;;5072377;28;20044;-34
2023/08/26 08:47:38;;;;;;;4.45;3.55;;;21.80;87.30;;;;;;5073340;28;20127;-37
2023/08/26 08:50:06;;;;;;;4.55;3.55;;;21.20;86.60;;;;;;5073089;28;20461;-37
2023/08/26 08:52:34;;;;;;;4.97;3.78;;;21.30;70.00;;;;;;5070088;28;20059;-36
2023/08/26 08:55:01;;;;;;;3.83;3.42;;;21.40;87.30;;;;;;5073089;28;20127;-35
2023/08/26 08:57:29;;;;;;;4.75;3.50;;;20.50;86.00;;;;;;5073486;28;20139;-35
2023/08/26 08:59:57;;;;;;;4.78;3.75;;;;;;;;;;5073275;28;20062;-36
2023/08/26 09:02:23;;;;;;;4.00;3.60;;;21.50;82.60;;;;;;5071781;28;20467;-35
2023/08/26 09:04:50;;;;;;;4.15;3.47;;;21.50;72.40;;;;;;5073026;28;20131;-36
2023/08/26 09:07:17;;;;;;;3.58;3.03;;;;;;;;;;5072427;28;20574;-32
2023/08/26 09:09:45;;;;;;;4.40;3.42;;;21.60;70.10;;;;;;5072861;28;20536;-33
2023/08/26 09:12:12;;;;;;;3.97;3.20;;;;;;;;;;5073016;28;20120;-34
2023/08/26 09:14:39;;;;;;;8.27;3.58;;;21.70;84.90;;;;;;5069198;28;20135;-39
2023/08/26 09:17:15;;;;;;;4.20;3.20;;;21.40;75.40;;;;;;5063153;28;20049;-36
2023/08/26 09:19:53;;;;;;;3.95;3.30;;;21.40;85.70;;;;;;5059857;28;20056;-38
2023/08/26 09:22:20;;;;;;;3.97;3.13;;;;;;;;;;5061373;28;20045;-36
2023/08/26 09:24:48;;;;;;;4.25;2.90;;;21.90;69.50;;;;;;5059527;28;20072;-34
2023/08/26 09:27:16;;;;;;;4.10;3.10;;;23.00;82.20;;;;;;5057350;28;20544;-35
2023/08/26 09:29:43;;;;;;;4.22;3.05;;;;;;;;;;5054029;28;20064;-36
2023/08/26 09:32:10;;;;;;;3.72;3.00;;;21.60;86.20;;;;;;5056634;28;20049;-38
2023/08/26 09:34:37;;;;;;;3.58;2.80;;;21.60;82.00;;;;;;5061071;28;20739;-36
2023/08/26 09:37:04;;;;;;;3.53;2.78;;;22.00;69.30;;;;;;5058819;28;20099;-36
2023/08/26 09:39:31;;;;;;;4.32;2.88;;;22.20;80.40;;;;;;5063423;28;20055;-35
2023/08/26 09:42:00;;;;;;;3.28;2.97;;;20.00;68.20;;;;;;5063455;28;20127;-35
2023/08/26 09:44:27;;;;;;;3.95;3.00;;;21.40;85.00;;;;;;5062318;28;20456;-37
2023/08/26 09:46:56;;;;;;;3.45;2.90;;;22.00;85.00;;;;;;5062003;28;20045;-37
2023/08/26 09:49:23;;;;;;;3.03;2.75;;;;;;;;;;5062882;28;20132;-36
2023/08/26 09:51:51;;;;;;;3.42;2.80;;;22.10;69.10;;;;;;5061361;28;20128;-35
2023/08/26 09:54:18;;;;;;;3.08;2.72;;;22.10;69.00;;;;;;5062824;28;20059;-34
2023/08/26 09:56:45;;;;;;;3.83;2.70;;;22.10;71.40;;;;;;5060341;28;20123;-35
2023/08/26 09:59:13;;;;;;;3.97;2.85;;;22.20;69.00;;;;;;5057574;28;20157;-34
2023/08/26 10:01:40;;;;;;;3.78;2.85;;;;;;;;;;5058758;28;20617;-35
2023/08/26 10:04:08;;;;;;;3.55;2.50;;;21.90;85.10;;;;;;5066242;28;20425;-38
2023/08/26 10:06:38;;;;;;;3.88;2.70;;;22.10;84.80;;;;;;5070507;28;20707;-37
2023/08/26 10:09:08;;;;;;;3.85;2.60;;;21.80;77.60;;;;;;5053439;28;20052;-37
2023/08/26 10:11:35;;;;;;;4.18;2.70;;;22.60;85.10;;;;;;5060528;28;20079;-37
2023/08/26 10:14:03;;;;;;;2.65;2.30;;;;;;;;;;5059076;28;20041;-34
2023/08/26 10:16:31;;;;;;;4.15;2.58;;;23.70;85.30;;;;;;5068002;28;20045;-36
2023/08/26 10:18:58;;;;;;;3.38;2.65;;;;;;;;;;5060374;28;20135;-34
2023/08/26 10:21:25;;;;;;;3.60;2.58;;;22.00;78.20;;;;;;5051478;28;20131;-35
2023/08/26 10:23:52;;;;;;;3.10;2.60;;;;;;;;;;5051189;28;20494;-34
2023/08/26 10:26:19;;;;;;;2.90;2.47;;;;;;;;;;5050973;28;20561;-35
2023/08/26 10:28:46;;;;;;;2.90;2.40;;;22.20;76.90;;;;;;5051608;28;20049;-31
2023/08/26 10:31:14;;;;;;;3.47;2.55;;;23.20;78.70;;;;;;5052948;28;20124;-31
2023/08/26 10:34:01;;;;;;;5.18;2.60;;;22.60;68.00;;;;;;5071016;28;20132;-33
2023/08/26 10:36:28;;;;;;;3.38;2.53;;;;;;;;;;5070834;28;20131;-33
2023/08/26 10:38:56;;;;;;;3.45;2.30;;;22.60;67.90;;;;;;5071232;28;20136;-32
2023/08/26 10:41:23;;;;;;;3.50;2.55;;;22.10;84.60;;;;;;5071256;28;20055;-30
2023/08/26 10:43:53;;;;;;;2.70;2.20;;;22.70;67.80;;;;;;5070584;28;20052;-31
2023/08/26 10:46:31;;;;;;;4.65;2.50;;;22.80;84.90;;;;;;5071120;28;20501;-31
2023/08/26 10:48:59;;;;;;;3.65;2.45;;;;;;;;;;5058819;28;20420;-33
2023/08/26 10:51:27;;;;;;;3.45;2.33;;;23.20;82.80;;;;;;5062572;28;20139;-32
2023/08/26 10:54:00;;;;;;;4.45;2.40;;;23.10;82.40;;;;;;5060722;28;20131;-31
2023/08/26 10:56:28;;;;;;;4.35;2.35;;;23.30;79.60;;;;;;5061426;28;20052;-32
2023/08/26 10:59:00;;;;;;;2.40;2.13;;;21.60;68.40;;;;;;5059761;28;20045;-32
2023/08/26 11:01:27;;;;;;;3.38;2.40;;;23.60;85.20;;;;;;5064591;28;20127;-31
2023/08/26 11:03:54;;;;;;;3.20;2.50;;;;;;;;;;5050564;28;20529;-34
2023/08/26 11:06:22;;;;;;;3.05;2.13;;;22.50;83.80;;;;;;5053652;28;20125;-32
2023/08/26 11:08:56;;;;;;;4.03;2.30;;;22.50;68.50;;;;;;5059671;28;20041;-33
2023/08/26 11:11:23;;;;;;;3.83;2.30;;;;;;;;;;5056917;28;20071;-30
2023/08/26 11:13:50;;;;;;;3.95;2.20;;;;;;;;;;5060544;28;20120;-31
2023/08/26 11:16:17;;;;;;;2.30;2.10;;;22.30;78.90;;;;;;5064109;28;20419;-32
2023/08/26 11:18:44;;;;;;;2.95;2.20;;;22.80;72.50;;;;;;5058587;28;20117;-31
2023/08/26 11:21:11;;;;;;;2.75;2.10;;;23.40;83.00;;;;;;5063501;28;20123;-32
2023/08/26 11:23:38;;;;;;;3.00;2.00;;;;;;;;;;5058871;28;20124;-32
2023/08/26 11:26:08;;;;;;;3.22;2.17;;;22.80;67.60;;;;;;5055856;28;20127;-32
2023/08/26 11:28:35;;;;;;;3.28;2.08;;;;;;;;;;5052657;28;20073;-31
2023/08/26 11:31:02;;;;;;;4.82;2.00;;;23.80;84.20;;;;;;5058237;28;20128;-31
2023/08/26 11:33:29;;;;;;;4.63;2.13;;;;;;;;;;5059062;28;20056;-32
2023/08/26 11:35:56;;;;;;;2.58;2.10;;;22.80;84.90;;;;;;5058079;28;20136;-30
2023/08/26 11:38:24;;;;;;;6.13;2.08;;;;;;;;;;5070611;28;20219;-32
2023/08/26 11:40:51;;;;;;;3.55;2.20;;;;;;;;;;5073588;28;20498;-32
2023/08/26 11:43:19;;;;;;;2.67;2.03;;;23.20;84.30;;;;;;5074184;28;20601;-30
2023/08/26 11:45:47;;;;;;;3.60;2.00;;;23.30;78.70;;;;;;5074793;28;20084;-30
2023/08/26 11:48:13;;;;;;;2.55;1.90;;;22.60;78.90;;;;;;5074694;28;20135;-30
2023/08/26 11:50:40;;;;;;;3.55;1.90;;;23.30;74.30;;;;;;5068021;28;20131;-31
2023/08/26 11:53:07;;;;;;;3.17;2.00;;;;;;;;;;5063098;28;20127;-33
2023/08/26 11:55:35;;;;;;;3.17;2.15;;;22.50;69.20;;;;;;5057081;28;20131;-32
2023/08/26 11:58:02;;;;;;;3.33;1.92;;;22.40;83.70;;;;;;5054797;28;20611;-31
2023/08/26 12:00:30;;;;;;;3.95;1.88;;;22.70;67.80;;;;;;5054110;28;20045;-30
2023/08/26 12:03:01;;;;;;;3.35;2.00;;;22.70;67.80;;;;;;5052793;28;20080;-31
2023/08/26 12:05:28;;;;;;;4.95;2.20;;;;;;;;;;5054531;28;20063;-34
2023/08/26 12:07:56;;;;;;;4.70;2.15;;;23.10;84.70;;;;;;5055526;28;20131;-37
2023/08/26 12:10:23;;;;;;;3.85;1.95;;;22.60;84.90;;;;;;5054239;28;20060;-37
2023/08/26 12:12:50;;;;;;;3.38;2.00;;;22.50;83.90;;;;;;5054043;28;20257;-35
2023/08/26 12:15:17;;;;;;;3.10;1.70;;;23.00;75.10;;;;;;5054506;28;20059;-35
2023/08/26 12:17:47;;;;;;;2.72;1.88;;;22.20;70.60;;;;;;5054410;28;20049;-38
2023/08/26 12:20:21;;;;;;;3.75;1.95;;;22.50;83.60;;;;;;5053628;28;20089;-36
2023/08/26 12:22:48;;;;;;;2.27;1.63;;;;;;;;;;5053744;28;20512;-34
2023/08/26 12:25:17;;;;;;;2.10;1.70;;;22.10;71.90;;;;;;5057296;28;20137;-36
2023/08/26 12:27:44;;;;;;;3.63;1.63;;;;;;;;;;5053818;28;20132;-34
2023/08/26 12:30:12;;;;;;;2.38;1.60;;;22.10;84.40;;;;;;5054083;28;20045;-38
2023/08/26 12:32:39;;;;;;;2.55;1.88;;;;;;;;;;5053344;28;20132;-32
2023/08/26 12:35:08;;;;;;;3.50;1.70;;;22.20;83.80;;;;;;5055496;28;20573;-30
2023/08/26 12:37:35;;;;;;;3.45;1.80;;;22.70;71.00;;;;;;5072211;28;20047;-33
2023/08/26 12:40:04;;;;;;;2.47;1.90;;;22.60;83.70;;;;;;5073667;28;20135;-30
2023/08/26 12:42:32;;;;;;;2.85;1.73;;;22.60;67.90;;;;;;5073011;28;20494;-34
2023/08/26 12:44:59;;;;;;;2.67;1.50;;;;;;;;;;5073660;28;20220;-34
2023/08/26 12:47:26;;;;;;;3.25;1.80;;;;;;;;;;5073232;28;20501;-31
2023/08/26 12:49:54;;;;;;;2.55;1.60;;;22.40;75.70;;;;;;5073206;28;20465;-31
2023/08/26 12:52:22;;;;;;;2.67;1.70;;;22.50;68.00;;;;;;5073033;28;20749;-34
2023/08/26 12:54:49;;;;;;;1.88;1.63;;;;;;;;;;5059610;28;20095;-34
2023/08/26 12:57:16;;;;;;;2.72;1.70;;;23.00;85.20;;;;;;5053438;28;20128;-30
2023/08/26 12:59:43;;;;;;;2.20;1.67;;;;;;;;;;5053338;28;20460;-35
2023/08/26 13:02:10;;;;;;;2.97;1.80;;;;;;;;;;5053182;28;20135;-41
2023/08/26 13:04:37;;;;;;;3.47;1.90;;;;;;;;;;5053089;28;20128;-35
2023/08/26 13:07:04;;;;;;;2.35;1.70;;;22.90;69.80;;;;;;5053276;28;20045;-31
2023/08/26 13:09:32;;;;;;;2.50;1.70;;;22.50;68.00;;;;;;5072001;28;20080;-36
2023/08/26 13:11:59;;;;;;;2.58;1.60;;;22.10;83.80;;;;;;5073306;28;20155;-39
2023/08/26 13:14:27;;;;;;;1.60;1.40;;;;;;;;;;5072891;28;20131;-35
2023/08/26 13:16:54;;;;;;;2.53;1.70;;;;;;;;;;5073263;28;20650;-33
2023/08/26 13:19:21;;;;;;;3.50;1.50;;;22.50;83.90;;;;;;5072977;28;20040;-37
2023/08/26 13:21:49;;;;;;;2.63;1.48;;;;;;;;;;5073040;28;20128;-36
2023/08/26 13:24:16;;;;;;;2.50;1.55;;;22.50;82.10;;;;;;5070832;28;20041;-39
2023/08/26 13:26:44;;;;;;;2.70;1.50;;;23.00;82.80;;;;;;5072880;28;20468;-37